sensor_id;sensor_type;location;lat;lon;timestamp;pressure;altitude;pressure_sealevel;temperature;humidity
68107;BME280;54892;47.488;19.026;2023-07-29T00:03:02;99553.34;;;21.95;68.49
68107;BME280;54892;47.488;19.026;2023-07-29T00:06:07;99546.66;;;21.89;68.72
68107;BME280;54892;47.488;19.026;2023-07-29T00:09:11;99547.53;;;21.93;68.74
68107;BME280;54892;47.488;19.026;2023-07-29T00:12:15;99549.34;;;21.89;68.97
68107;BME280;54892;47.488;19.026;2023-07-29T00:15:18;99540.84;;;21.87;69.02
68107;BME280;54892;47.488;19.026;2023-07-29T00:18:21;99549.56;;;21.84;69.31
68107;BME280;54892;47.488;19.026;2023-07-29T00:21:26;99548.44;;;21.85;69.27
68107;BME280;54892;47.488;19.026;2023-07-29T00:24:30;99553.50;;;21.86;69.11
68107;BME280;54892;47.488;19.026;2023-07-29T00:27:33;99543.06;;;21.85;69.36
68107;BME280;54892;47.488;19.026;2023-07-29T00:30:37;99544.88;;;21.81;69.26
68107;BME280;54892;47.488;19.026;2023-07-29T00:33:41;99545.91;;;21.76;69.31
68107;BME280;54892;47.488;19.026;2023-07-29T00:36:46;99540.00;;;21.70;69.37
68107;BME280;54892;47.488;19.026;2023-07-29T00:39:50;99540.78;;;21.71;69.26
68107;BME280;54892;47.488;19.026;2023-07-29T00:42:53;99533.84;;;21.70;68.91
68107;BME280;54892;47.488;19.026;2023-07-29T00:45:57;99540.03;;;21.58;69.17
68107;BME280;54892;47.488;19.026;2023-07-29T00:49:00;99541.13;;;21.57;69.29
68107;BME280;54892;47.488;19.026;2023-07-29T00:52:06;99538.00;;;21.55;69.25
68107;BME280;54892;47.488;19.026;2023-07-29T00:58:13;99527.31;;;21.42;69.16
68107;BME280;54892;47.488;19.026;2023-07-29T01:01:18;99526.41;;;21.38;68.83
68107;BME280;54892;47.488;19.026;2023-07-29T01:04:21;99525.78;;;21.29;69.02
68107;BME280;54892;47.488;19.026;2023-07-29T01:07:31;99526.09;;;21.27;68.59
68107;BME280;54892;47.488;19.026;2023-07-29T01:10:43;99525.09;;;21.20;68.92
68107;BME280;54892;47.488;19.026;2023-07-29T01:13:52;99523.53;;;21.19;68.75
68107;BME280;54892;47.488;19.026;2023-07-29T01:17:03;99527.78;;;21.20;68.78
68107;BME280;54892;47.488;19.026;2023-07-29T01:20:08;99525.69;;;21.25;68.57
68107;BME280;54892;47.488;19.026;2023-07-29T01:23:13;99530.91;;;21.22;67.34
68107;BME280;54892;47.488;19.026;2023-07-29T01:26:18;99531.03;;;21.25;66.92
68107;BME280;54892;47.488;19.026;2023-07-29T01:29:22;99525.69;;;21.13;67.54
68107;BME280;54892;47.488;19.026;2023-07-29T01:32:29;99530.28;;;21.12;67.62
68107;BME280;54892;47.488;19.026;2023-07-29T01:35:42;99522.81;;;21.06;67.91
68107;BME280;54892;47.488;19.026;2023-07-29T01:38:47;99531.41;;;20.99;68.13
68107;BME280;54892;47.488;19.026;2023-07-29T01:41:53;99529.06;;;20.97;68.28
68107;BME280;54892;47.488;19.026;2023-07-29T01:44:56;99541.44;;;21.02;68.27
68107;BME280;54892;47.488;19.026;2023-07-29T01:48:00;99535.66;;;20.88;68.60
68107;BME280;54892;47.488;19.026;2023-07-29T01:51:04;99541.81;;;20.88;68.75
68107;BME280;54892;47.488;19.026;2023-07-29T01:54:07;99538.78;;;20.90;68.72
68107;BME280;54892;47.488;19.026;2023-07-29T01:57:12;99535.44;;;20.93;68.59
68107;BME280;54892;47.488;19.026;2023-07-29T02:00:17;99539.69;;;20.94;68.70
68107;BME280;54892;47.488;19.026;2023-07-29T02:03:21;99532.19;;;20.87;69.02
68107;BME280;54892;47.488;19.026;2023-07-29T02:06:28;99531.53;;;20.78;69.29
68107;BME280;54892;47.488;19.026;2023-07-29T02:09:32;99537.19;;;20.64;69.85
68107;BME280;54892;47.488;19.026;2023-07-29T02:12:37;99534.81;;;20.50;70.37
68107;BME280;54892;47.488;19.026;2023-07-29T02:15:40;99534.38;;;20.48;70.56
68107;BME280;54892;47.488;19.026;2023-07-29T02:18:44;99528.91;;;20.44;70.73
68107;BME280;54892;47.488;19.026;2023-07-29T02:21:48;99539.84;;;20.39;70.95
68107;BME280;54892;47.488;19.026;2023-07-29T02:24:51;99537.16;;;20.39;70.99
68107;BME280;54892;47.488;19.026;2023-07-29T02:27:56;99530.53;;;20.24;71.69
68107;BME280;54892;47.488;19.026;2023-07-29T02:31:12;99538.47;;;20.20;71.94
68107;BME280;54892;47.488;19.026;2023-07-29T02:34:15;99547.06;;;20.26;71.67
68107;BME280;54892;47.488;19.026;2023-07-29T02:37:19;99537.56;;;20.16;71.96
68107;BME280;54892;47.488;19.026;2023-07-29T02:40:23;99533.88;;;20.21;71.46
68107;BME280;54892;47.488;19.026;2023-07-29T02:43:30;99533.31;;;20.15;71.81
68107;BME280;54892;47.488;19.026;2023-07-29T02:46:33;99538.63;;;20.03;72.40
68107;BME280;54892;47.488;19.026;2023-07-29T02:49:37;99547.12;;;20.05;72.34
68107;BME280;54892;47.488;19.026;2023-07-29T02:52:41;99543.53;;;20.01;72.98
68107;BME280;54892;47.488;19.026;2023-07-29T02:55:45;99548.00;;;20.09;72.76
68107;BME280;54892;47.488;19.026;2023-07-29T02:58:49;99546.13;;;20.10;72.92
68107;BME280;54892;47.488;19.026;2023-07-29T03:01:55;99553.38;;;20.09;72.88
68107;BME280;54892;47.488;19.026;2023-07-29T03:04:58;99552.94;;;20.07;72.83
68107;BME280;54892;47.488;19.026;2023-07-29T03:08:02;99550.69;;;20.09;72.67
68107;BME280;54892;47.488;19.026;2023-07-29T03:11:06;99554.94;;;20.10;72.71
68107;BME280;54892;47.488;19.026;2023-07-29T03:14:11;99550.69;;;20.09;73.01
68107;BME280;54892;47.488;19.026;2023-07-29T03:17:15;99564.31;;;20.04;73.25
68107;BME280;54892;47.488;19.026;2023-07-29T03:20:19;99542.63;;;19.97;73.28
68107;BME280;54892;47.488;19.026;2023-07-29T03:23:24;99547.78;;;19.81;73.92
68107;BME280;54892;47.488;19.026;2023-07-29T03:26:28;99555.03;;;19.80;74.04
68107;BME280;54892;47.488;19.026;2023-07-29T03:29:33;99552.69;;;19.78;74.16
68107;BME280;54892;47.488;19.026;2023-07-29T03:32:37;99556.75;;;19.85;73.82
68107;BME280;54892;47.488;19.026;2023-07-29T03:35:40;99557.38;;;19.82;73.67
68107;BME280;54892;47.488;19.026;2023-07-29T03:38:47;99551.37;;;19.85;73.54
68107;BME280;54892;47.488;19.026;2023-07-29T03:41:51;99552.28;;;19.89;73.37
68107;BME280;54892;47.488;19.026;2023-07-29T03:44:56;99553.34;;;19.97;73.15
68107;BME280;54892;47.488;19.026;2023-07-29T03:47:59;99554.25;;;20.01;73.33
68107;BME280;54892;47.488;19.026;2023-07-29T03:51:03;99555.16;;;20.05;73.49
68107;BME280;54892;47.488;19.026;2023-07-29T03:54:07;99554.16;;;20.10;73.44
68107;BME280;54892;47.488;19.026;2023-07-29T03:57:11;99555.09;;;20.14;73.43
68107;BME280;54892;47.488;19.026;2023-07-29T04:00:16;99561.56;;;20.13;73.35
68107;BME280;54892;47.488;19.026;2023-07-29T04:03:20;99560.63;;;20.08;73.14
68107;BME280;54892;47.488;19.026;2023-07-29T04:06:24;99560.75;;;20.12;73.05
68107;BME280;54892;47.488;19.026;2023-07-29T04:09:28;99564.06;;;19.97;73.50
68107;BME280;54892;47.488;19.026;2023-07-29T04:12:32;99567.00;;;20.04;73.43
68107;BME280;54892;47.488;19.026;2023-07-29T04:15:37;99566.37;;;20.19;72.40
68107;BME280;54892;47.488;19.026;2023-07-29T04:18:41;99567.72;;;20.26;72.40
68107;BME280;54892;47.488;19.026;2023-07-29T04:21:44;99556.78;;;20.31;72.55
68107;BME280;54892;47.488;19.026;2023-07-29T04:24:47;99556.69;;;20.39;72.29
68107;BME280;54892;47.488;19.026;2023-07-29T04:27:51;99565.41;;;20.49;72.29
68107;BME280;54892;47.488;19.026;2023-07-29T04:30:56;99559.91;;;20.79;71.76
68107;BME280;54892;47.488;19.026;2023-07-29T04:33:59;99568.16;;;21.36;69.88
68107;BME280;54892;47.488;19.026;2023-07-29T04:37:03;99561.53;;;22.15;66.22
68107;BME280;54892;47.488;19.026;2023-07-29T04:40:06;99561.72;;;22.22;65.90
68107;BME280;54892;47.488;19.026;2023-07-29T04:43:09;99561.19;;;22.32;65.36
68107;BME280;54892;47.488;19.026;2023-07-29T04:46:14;99550.41;;;22.00;66.42
68107;BME280;54892;47.488;19.026;2023-07-29T04:49:17;99548.44;;;21.85;67.21
68107;BME280;54892;47.488;19.026;2023-07-29T04:52:21;99559.00;;;21.78;67.14
68107;BME280;54892;47.488;19.026;2023-07-29T04:55:24;99560.81;;;21.73;67.62
68107;BME280;54892;47.488;19.026;2023-07-29T04:58:28;99562.16;;;21.67;67.76
68107;BME280;54892;47.488;19.026;2023-07-29T05:01:33;99549.84;;;21.79;67.80
68107;BME280;54892;47.488;19.026;2023-07-29T05:04:37;99561.25;;;21.75;68.49
68107;BME280;54892;47.488;19.026;2023-07-29T05:07:40;99566.28;;;21.77;68.83
68107;BME280;54892;47.488;19.026;2023-07-29T05:10:44;99563.97;;;21.92;67.95
68107;BME280;54892;47.488;19.026;2023-07-29T05:13:47;99574.50;;;21.97;67.70
68107;BME280;54892;47.488;19.026;2023-07-29T05:16:52;99580.09;;;22.20;66.12
68107;BME280;54892;47.488;19.026;2023-07-29T05:19:55;99582.78;;;22.80;64.65
68107;BME280;54892;47.488;19.026;2023-07-29T05:22:59;99580.88;;;22.81;64.35
68107;BME280;54892;47.488;19.026;2023-07-29T05:26:03;99582.69;;;22.77;63.77
68107;BME280;54892;47.488;19.026;2023-07-29T05:29:06;99584.53;;;22.73;64.08
68107;BME280;54892;47.488;19.026;2023-07-29T05:32:10;99588.16;;;22.64;63.93
68107;BME280;54892;47.488;19.026;2023-07-29T05:35:14;99599.94;;;22.76;62.95
68107;BME280;54892;47.488;19.026;2023-07-29T05:38:17;99584.25;;;22.62;63.06
68107;BME280;54892;47.488;19.026;2023-07-29T05:41:20;99603.59;;;22.68;63.13
68107;BME280;54892;47.488;19.026;2023-07-29T05:44:27;99613.41;;;22.76;62.85
68107;BME280;54892;47.488;19.026;2023-07-29T05:47:31;99613.66;;;22.87;62.56
68107;BME280;54892;47.488;19.026;2023-07-29T05:50:35;99606.22;;;22.96;62.79
68107;BME280;54892;47.488;19.026;2023-07-29T05:53:38;99603.50;;;23.12;60.66
68107;BME280;54892;47.488;19.026;2023-07-29T05:56:42;99609.12;;;23.07;61.74
68107;BME280;54892;47.488;19.026;2023-07-29T05:59:46;99605.50;;;23.15;61.80
68107;BME280;54892;47.488;19.026;2023-07-29T06:02:50;99613.75;;;23.22;61.60
68107;BME280;54892;47.488;19.026;2023-07-29T06:05:54;99622.00;;;23.30;61.19
68107;BME280;54892;47.488;19.026;2023-07-29T06:08:57;99627.56;;;23.21;61.87
68107;BME280;54892;47.488;19.026;2023-07-29T06:12:00;99630.69;;;23.23;62.44
68107;BME280;54892;47.488;19.026;2023-07-29T06:15:04;99629.25;;;23.45;61.50
68107;BME280;54892;47.488;19.026;2023-07-29T06:18:09;99635.34;;;23.42;61.65
68107;BME280;54892;47.488;19.026;2023-07-29T06:21:12;99635.19;;;23.35;62.18
68107;BME280;54892;47.488;19.026;2023-07-29T06:24:18;99631.34;;;23.36;62.42
68107;BME280;54892;47.488;19.026;2023-07-29T06:27:22;99633.59;;;23.50;62.76
68107;BME280;54892;47.488;19.026;2023-07-29T06:30:26;99647.62;;;23.59;61.95
68107;BME280;54892;47.488;19.026;2023-07-29T06:33:31;99643.47;;;23.62;62.16
68107;BME280;54892;47.488;19.026;2023-07-29T06:36:34;99641.03;;;23.56;62.60
68107;BME280;54892;47.488;19.026;2023-07-29T06:39:37;99640.50;;;23.86;62.09
68107;BME280;54892;47.488;19.026;2023-07-29T06:42:41;99652.03;;;24.03;61.36
68107;BME280;54892;47.488;19.026;2023-07-29T06:45:44;99649.06;;;24.08;61.34
68107;BME280;54892;47.488;19.026;2023-07-29T06:48:49;99653.75;;;24.11;61.15
68107;BME280;54892;47.488;19.026;2023-07-29T06:51:52;99642.22;;;24.14;60.77
68107;BME280;54892;47.488;19.026;2023-07-29T06:54:56;99651.47;;;24.13;60.25
68107;BME280;54892;47.488;19.026;2023-07-29T06:57:59;99642.16;;;24.30;59.48
68107;BME280;54892;47.488;19.026;2023-07-29T07:01:02;99646.03;;;24.33;59.88
68107;BME280;54892;47.488;19.026;2023-07-29T07:04:06;99638.94;;;24.44;59.55
68107;BME280;54892;47.488;19.026;2023-07-29T07:07:10;99635.47;;;24.67;58.84
68107;BME280;54892;47.488;19.026;2023-07-29T07:10:13;99640.44;;;24.65;59.16
68107;BME280;54892;47.488;19.026;2023-07-29T07:13:17;99630.28;;;24.78;58.40
68107;BME280;54892;47.488;19.026;2023-07-29T07:16:20;99633.16;;;25.12;57.69
68107;BME280;54892;47.488;19.026;2023-07-29T07:19:25;99635.09;;;25.99;55.32
68107;BME280;54892;47.488;19.026;2023-07-29T07:22:28;99632.03;;;26.80;53.02
68107;BME280;54892;47.488;19.026;2023-07-29T07:25:31;99633.16;;;28.09;49.73
68107;BME280;54892;47.488;19.026;2023-07-29T07:28:35;99641.69;;;29.67;46.02
68107;BME280;54892;47.488;19.026;2023-07-29T07:31:38;99640.19;;;30.36;43.37
68107;BME280;54892;47.488;19.026;2023-07-29T07:34:43;99634.00;;;30.29;43.07
68107;BME280;54892;47.488;19.026;2023-07-29T07:37:47;99636.69;;;29.54;44.23
68107;BME280;54892;47.488;19.026;2023-07-29T07:40:53;99628.91;;;29.53;44.46
68107;BME280;54892;47.488;19.026;2023-07-29T07:43:57;99632.78;;;29.59;45.14
68107;BME280;54892;47.488;19.026;2023-07-29T07:47:00;99634.06;;;30.18;43.52
68107;BME280;54892;47.488;19.026;2023-07-29T07:50:07;99630.94;;;30.23;42.43
68107;BME280;54892;47.488;19.026;2023-07-29T07:53:10;99633.50;;;30.48;42.69
68107;BME280;54892;47.488;19.026;2023-07-29T07:56:14;99628.75;;;31.05;41.12
68107;BME280;54892;47.488;19.026;2023-07-29T07:59:18;99627.66;;;32.30;38.68
68107;BME280;54892;47.488;19.026;2023-07-29T08:02:21;99626.63;;;33.60;35.75
68107;BME280;54892;47.488;19.026;2023-07-29T08:05:26;99624.88;;;34.23;34.10
68107;BME280;54892;47.488;19.026;2023-07-29T08:08:29;99629.09;;;34.44;33.34
68107;BME280;54892;47.488;19.026;2023-07-29T08:11:33;99629.91;;;34.90;33.38
68107;BME280;54892;47.488;19.026;2023-07-29T08:14:36;99622.97;;;35.02;33.01
68107;BME280;54892;47.488;19.026;2023-07-29T08:17:39;99624.19;;;34.68;32.99
68107;BME280;54892;47.488;19.026;2023-07-29T08:20:52;99614.81;;;34.82;33.43
68107;BME280;54892;47.488;19.026;2023-07-29T08:23:56;99617.16;;;34.18;34.08
68107;BME280;54892;47.488;19.026;2023-07-29T08:26:59;99618.63;;;33.49;32.42
68107;BME280;54892;47.488;19.026;2023-07-29T08:30:02;99617.38;;;32.89;34.48
68107;BME280;54892;47.488;19.026;2023-07-29T08:33:06;99616.31;;;32.32;35.29
68107;BME280;54892;47.488;19.026;2023-07-29T08:36:10;99615.59;;;31.69;36.04
68107;BME280;54892;47.488;19.026;2023-07-29T08:39:14;99613.66;;;31.35;36.99
68107;BME280;54892;47.488;19.026;2023-07-29T08:42:17;99611.91;;;30.72;38.37
68107;BME280;54892;47.488;19.026;2023-07-29T08:45:21;99606.97;;;30.52;38.53
68107;BME280;54892;47.488;19.026;2023-07-29T08:48:28;99612.19;;;30.36;38.97
68107;BME280;54892;47.488;19.026;2023-07-29T08:51:33;99601.84;;;30.09;39.66
68107;BME280;54892;47.488;19.026;2023-07-29T08:54:37;99608.28;;;29.62;40.28
68107;BME280;54892;47.488;19.026;2023-07-29T08:57:40;99604.81;;;29.58;42.15
68107;BME280;54892;47.488;19.026;2023-07-29T09:00:44;99598.63;;;29.51;42.54
68107;BME280;54892;47.488;19.026;2023-07-29T09:03:48;99600.59;;;29.28;41.11
68107;BME280;54892;47.488;19.026;2023-07-29T09:06:52;99591.69;;;29.35;40.50
68107;BME280;54892;47.488;19.026;2023-07-29T09:09:56;99598.69;;;29.14;40.35
68107;BME280;54892;47.488;19.026;2023-07-29T09:12:59;99596.75;;;29.11;41.34
68107;BME280;54892;47.488;19.026;2023-07-29T09:16:05;99596.00;;;29.04;41.59
68107;BME280;54892;47.488;19.026;2023-07-29T09:19:08;99594.81;;;29.19;40.99
68107;BME280;54892;47.488;19.026;2023-07-29T09:22:18;99597.53;;;29.15;39.59
68107;BME280;54892;47.488;19.026;2023-07-29T09:25:22;99594.06;;;29.00;40.36
68107;BME280;54892;47.488;19.026;2023-07-29T09:28:26;99590.56;;;29.04;41.03
68107;BME280;54892;47.488;19.026;2023-07-29T09:31:29;99580.88;;;29.02;40.91
68107;BME280;54892;47.488;19.026;2023-07-29T09:34:33;99578.88;;;29.25;41.03
68107;BME280;54892;47.488;19.026;2023-07-29T09:37:45;99581.66;;;29.03;41.33
68107;BME280;54892;47.488;19.026;2023-07-29T09:40:49;99575.44;;;29.10;41.42
68107;BME280;54892;47.488;19.026;2023-07-29T09:43:56;99575.81;;;29.05;41.80
68107;BME280;54892;47.488;19.026;2023-07-29T09:47:00;99567.66;;;28.97;41.31
68107;BME280;54892;47.488;19.026;2023-07-29T09:50:04;99570.81;;;28.85;39.92
68107;BME280;54892;47.488;19.026;2023-07-29T09:53:09;99571.59;;;28.89;40.27
68107;BME280;54892;47.488;19.026;2023-07-29T09:56:12;99568.88;;;28.75;40.62
68107;BME280;54892;47.488;19.026;2023-07-29T09:59:18;99570.78;;;28.60;41.02
68107;BME280;54892;47.488;19.026;2023-07-29T10:02:21;99569.63;;;28.68;40.94
68107;BME280;54892;47.488;19.026;2023-07-29T10:05:27;99568.88;;;28.78;41.47
68107;BME280;54892;47.488;19.026;2023-07-29T10:08:31;99567.66;;;28.97;41.46
68107;BME280;54892;47.488;19.026;2023-07-29T10:11:37;99554.13;;;28.72;40.33
68107;BME280;54892;47.488;19.026;2023-07-29T10:14:40;99561.09;;;28.55;40.93
68107;BME280;54892;47.488;19.026;2023-07-29T10:17:44;99556.47;;;28.41;41.19
68107;BME280;54892;47.488;19.026;2023-07-29T10:20:50;99551.03;;;28.59;40.79
68107;BME280;54892;47.488;19.026;2023-07-29T10:23:55;99551.81;;;28.78;39.49
68107;BME280;54892;47.488;19.026;2023-07-29T10:27:01;99551.41;;;28.83;39.62
68107;BME280;54892;47.488;19.026;2023-07-29T10:30:05;99554.09;;;28.94;39.11
68107;BME280;54892;47.488;19.026;2023-07-29T10:33:08;99556.47;;;28.77;38.61
68107;BME280;54892;47.488;19.026;2023-07-29T10:36:12;99550.63;;;28.71;39.51
68107;BME280;54892;47.488;19.026;2023-07-29T10:39:17;99547.53;;;28.91;38.79
68107;BME280;54892;47.488;19.026;2023-07-29T10:42:21;99551.37;;;29.05;38.24
68107;BME280;54892;47.488;19.026;2023-07-29T10:45:25;99548.25;;;29.02;38.22
68107;BME280;54892;47.488;19.026;2023-07-29T10:48:40;99548.25;;;29.02;38.76
68107;BME280;54892;47.488;19.026;2023-07-29T10:51:43;99544.81;;;28.87;38.98
68107;BME280;54892;47.488;19.026;2023-07-29T10:54:49;99546.34;;;28.85;38.99
68107;BME280;54892;47.488;19.026;2023-07-29T10:57:52;99540.53;;;28.90;39.33
68107;BME280;54892;47.488;19.026;2023-07-29T11:00:55;99540.94;;;28.92;39.32
68107;BME280;54892;47.488;19.026;2023-07-29T11:07:25;99543.63;;;28.96;39.72
68107;BME280;54892;47.488;19.026;2023-07-29T11:10:33;99542.88;;;28.95;40.14
68107;BME280;54892;47.488;19.026;2023-07-29T11:13:45;99542.38;;;29.22;39.93
68107;BME280;54892;47.488;19.026;2023-07-29T11:16:48;99550.53;;;29.26;39.67
68107;BME280;54892;47.488;19.026;2023-07-29T11:19:52;99548.19;;;29.28;39.94
68107;BME280;54892;47.488;19.026;2023-07-29T11:22:58;99547.41;;;29.42;39.84
68107;BME280;54892;47.488;19.026;2023-07-29T11:26:04;99541.97;;;29.31;40.58
68107;BME280;54892;47.488;19.026;2023-07-29T11:29:07;99548.63;;;29.08;41.06
68107;BME280;54892;47.488;19.026;2023-07-29T11:32:12;99536.19;;;29.18;41.30
68107;BME280;54892;47.488;19.026;2023-07-29T11:35:16;99538.44;;;29.49;40.97
68107;BME280;54892;47.488;19.026;2023-07-29T11:38:20;99529.37;;;29.70;41.44
68107;BME280;54892;47.488;19.026;2023-07-29T11:41:24;99544.06;;;29.83;39.47
68107;BME280;54892;47.488;19.026;2023-07-29T11:44:28;99533.06;;;30.08;37.67
68107;BME280;54892;47.488;19.026;2023-07-29T11:47:31;99532.97;;;30.16;37.61
68107;BME280;54892;47.488;19.026;2023-07-29T11:50:37;99524.69;;;30.30;37.77
68107;BME280;54892;47.488;19.026;2023-07-29T11:53:40;99526.50;;;30.51;37.86
68107;BME280;54892;47.488;19.026;2023-07-29T11:56:46;99517.19;;;30.45;36.93
68107;BME280;54892;47.488;19.026;2023-07-29T11:59:49;99514.75;;;30.62;37.32
68107;BME280;54892;47.488;19.026;2023-07-29T12:02:52;99510.16;;;30.51;37.14
68107;BME280;54892;47.488;19.026;2023-07-29T12:05:56;99519.78;;;30.14;38.25
68107;BME280;54892;47.488;19.026;2023-07-29T12:08:59;99515.22;;;30.00;38.88
68107;BME280;54892;47.488;19.026;2023-07-29T12:12:05;99498.00;;;30.14;38.98
68107;BME280;54892;47.488;19.026;2023-07-29T12:15:09;99509.31;;;30.09;37.04
68107;BME280;54892;47.488;19.026;2023-07-29T12:18:13;99507.50;;;29.88;37.51
68107;BME280;54892;47.488;19.026;2023-07-29T12:21:17;99511.06;;;29.77;38.55
68107;BME280;54892;47.488;19.026;2023-07-29T12:24:20;99500.53;;;29.83;39.03
68107;BME280;54892;47.488;19.026;2023-07-29T12:27:26;99501.59;;;30.00;38.95
68107;BME280;54892;47.488;19.026;2023-07-29T12:30:29;99489.09;;;30.10;37.92
68107;BME280;54892;47.488;19.026;2023-07-29T12:33:33;99501.59;;;30.00;37.95
68107;BME280;54892;47.488;19.026;2023-07-29T12:36:41;99493.00;;;30.09;37.52
68107;BME280;54892;47.488;19.026;2023-07-29T12:39:44;99500.66;;;30.21;37.88
68107;BME280;54892;47.488;19.026;2023-07-29T12:42:49;99490.22;;;30.16;36.71
68107;BME280;54892;47.488;19.026;2023-07-29T12:45:52;99480.06;;;30.24;37.20
68107;BME280;54892;47.488;19.026;2023-07-29T12:48:55;99492.78;;;30.34;36.76
68107;BME280;54892;47.488;19.026;2023-07-29T12:51:59;99483.72;;;30.48;36.90
68107;BME280;54892;47.488;19.026;2023-07-29T12:55:02;99480.75;;;30.32;37.26
68107;BME280;54892;47.488;19.026;2023-07-29T12:58:06;99476.25;;;30.14;37.48
68107;BME280;54892;47.488;19.026;2023-07-29T13:01:09;99480.00;;;30.28;36.88
68107;BME280;54892;47.488;19.026;2023-07-29T13:04:18;99478.28;;;30.48;35.79
68107;BME280;54892;47.488;19.026;2023-07-29T13:07:22;99474.38;;;30.49;35.83
68107;BME280;54892;47.488;19.026;2023-07-29T13:10:25;99470.44;;;30.54;36.34
68107;BME280;54892;47.488;19.026;2023-07-29T13:13:30;99471.59;;;30.53;36.15
68107;BME280;54892;47.488;19.026;2023-07-29T13:16:33;99471.28;;;30.47;36.60
68107;BME280;54892;47.488;19.026;2023-07-29T13:19:36;99476.06;;;30.32;37.09
68107;BME280;54892;47.488;19.026;2023-07-29T13:22:40;99472.34;;;30.15;37.27
68107;BME280;54892;47.488;19.026;2023-07-29T13:25:44;99463.94;;;29.99;37.78
68107;BME280;54892;47.488;19.026;2023-07-29T13:28:49;99467.06;;;29.90;37.42
68107;BME280;54892;47.488;19.026;2023-07-29T13:31:52;99458.06;;;30.00;37.39
68107;BME280;54892;47.488;19.026;2023-07-29T13:34:55;99460.03;;;30.00;37.40
68107;BME280;54892;47.488;19.026;2023-07-29T13:37:58;99450.66;;;30.04;37.34
68107;BME280;54892;47.488;19.026;2023-07-29T13:41:02;99454.16;;;30.05;37.07
68107;BME280;54892;47.488;19.026;2023-07-29T13:44:06;99451.41;;;30.08;36.90
68107;BME280;54892;47.488;19.026;2023-07-29T13:47:10;99436.59;;;30.13;37.17
68107;BME280;54892;47.488;19.026;2023-07-29T13:50:13;99449.31;;;30.23;36.96
68107;BME280;54892;47.488;19.026;2023-07-29T13:53:17;99437.34;;;30.17;36.94
68107;BME280;54892;47.488;19.026;2023-07-29T13:56:20;99426.84;;;30.16;36.87
68107;BME280;54892;47.488;19.026;2023-07-29T13:59:24;99430.31;;;30.20;36.60
68107;BME280;54892;47.488;19.026;2023-07-29T14:02:27;99426.78;;;30.23;36.74
68107;BME280;54892;47.488;19.026;2023-07-29T14:05:32;99429.13;;;30.21;36.82
68107;BME280;54892;47.488;19.026;2023-07-29T14:08:36;99417.78;;;30.30;36.70
68107;BME280;54892;47.488;19.026;2023-07-29T14:11:40;99420.78;;;30.39;35.74
68107;BME280;54892;47.488;19.026;2023-07-29T14:14:44;99419.50;;;30.51;35.35
68107;BME280;54892;47.488;19.026;2023-07-29T14:17:48;99406.78;;;30.41;35.14
68107;BME280;54892;47.488;19.026;2023-07-29T14:20:52;99404.91;;;30.34;35.77
68107;BME280;54892;47.488;19.026;2023-07-29T14:23:55;99402.56;;;30.36;35.82
68107;BME280;54892;47.488;19.026;2023-07-29T14:26:58;99404.56;;;30.28;36.05
68107;BME280;54892;47.488;19.026;2023-07-29T14:30:04;99394.59;;;30.14;36.29
68107;BME280;54892;47.488;19.026;2023-07-29T14:33:07;99405.19;;;30.05;36.59
68107;BME280;54892;47.488;19.026;2023-07-29T14:36:10;99407.97;;;29.98;37.12
68107;BME280;54892;47.488;19.026;2023-07-29T14:39:14;99404.44;;;30.01;37.82
68107;BME280;54892;47.488;19.026;2023-07-29T14:42:17;99394.75;;;29.92;37.60
68107;BME280;54892;47.488;19.026;2023-07-29T14:45:21;99402.94;;;29.89;37.06
68107;BME280;54892;47.488;19.026;2023-07-29T14:48:25;99406.19;;;29.73;37.57
68107;BME280;54892;47.488;19.026;2023-07-29T14:51:28;99404.72;;;29.61;37.88
68107;BME280;54892;47.488;19.026;2023-07-29T14:54:31;99401.69;;;29.48;38.25
68107;BME280;54892;47.488;19.026;2023-07-29T14:57:34;99399.44;;;29.39;38.67
68107;BME280;54892;47.488;19.026;2023-07-29T15:00:39;99397.09;;;29.41;38.71
68107;BME280;54892;47.488;19.026;2023-07-29T15:03:42;99393.63;;;29.37;38.84
68107;BME280;54892;47.488;19.026;2023-07-29T15:06:47;99396.72;;;29.43;39.19
68107;BME280;54892;47.488;19.026;2023-07-29T15:09:51;99388.16;;;29.44;39.21
68107;BME280;54892;47.488;19.026;2023-07-29T15:12:54;99399.78;;;29.49;39.17
68107;BME280;54892;47.488;19.026;2023-07-29T15:15:59;99393.94;;;29.50;39.97
68107;BME280;54892;47.488;19.026;2023-07-29T15:19:02;99390.84;;;29.48;39.64
68107;BME280;54892;47.488;19.026;2023-07-29T15:22:06;99388.53;;;29.46;40.07
68107;BME280;54892;47.488;19.026;2023-07-29T15:25:09;99395.50;;;29.47;40.11
68107;BME280;54892;47.488;19.026;2023-07-29T15:28:12;99393.88;;;29.57;40.37
68107;BME280;54892;47.488;19.026;2023-07-29T15:31:17;99393.06;;;29.64;40.34
68107;BME280;54892;47.488;19.026;2023-07-29T15:34:20;99386.84;;;29.63;40.51
68107;BME280;54892;47.488;19.026;2023-07-29T15:37:27;99385.28;;;29.62;40.71
68107;BME280;54892;47.488;19.026;2023-07-29T15:40:30;99400.34;;;29.74;40.06
68107;BME280;54892;47.488;19.026;2023-07-29T15:43:33;99387.66;;;29.57;40.93
68107;BME280;54892;47.488;19.026;2023-07-29T15:46:38;99390.84;;;29.48;41.14
68107;BME280;54892;47.488;19.026;2023-07-29T15:49:41;99388.56;;;29.39;41.14
68107;BME280;54892;47.488;19.026;2023-07-29T15:52:45;99393.25;;;29.35;41.28
68107;BME280;54892;47.488;19.026;2023-07-29T15:55:49;99399.91;;;29.23;41.45
68107;BME280;54892;47.488;19.026;2023-07-29T15:58:53;99403.44;;;29.16;41.46
68107;BME280;54892;47.488;19.026;2023-07-29T16:01:57;99404.22;;;29.13;41.55
68107;BME280;54892;47.488;19.026;2023-07-29T16:05:00;99406.97;;;29.10;41.71
68107;BME280;54892;47.488;19.026;2023-07-29T16:08:04;99413.16;;;29.10;41.77
68107;BME280;54892;47.488;19.026;2023-07-29T16:11:08;99413.56;;;29.09;41.76